createdAt,value
2018-12-16T00:00:39.302Z,22.67
2018-12-16T00:03:08.462Z,21.93
2018-12-16T00:05:37.747Z,26.80
2018-12-16T00:08:06.911Z,24.92
2018-12-16T00:10:36.330Z,23.52
2018-12-16T00:13:05.698Z,21.97
2018-12-16T00:15:34.954Z,20.25
2018-12-16T00:18:04.321Z,23.55
2018-12-16T00:20:33.506Z,21.55
2018-12-16T00:23:02.779Z,24.40
2018-12-16T00:25:32.298Z,23.85
2018-12-16T00:28:01.491Z,23.20
2018-12-16T00:30:30.698Z,22.98
2018-12-16T00:32:59.869Z,24.15
2018-12-16T00:35:29.094Z,20.75
2018-12-16T00:37:58.266Z,20.72
2018-12-16T00:40:27.481Z,21.62
2018-12-16T00:42:56.786Z,22.25
2018-12-16T00:45:25.989Z,19.27
2018-12-16T00:47:55.166Z,20.97
2018-12-16T00:50:24.450Z,19.70
2018-12-16T00:52:53.634Z,21.62
2018-12-16T00:55:22.874Z,20.65
2018-12-16T00:57:52.034Z,21.10
2018-12-16T01:00:21.270Z,19.48
2018-12-16T01:02:50.778Z,19.30
2018-12-16T01:05:19.982Z,19.37
2018-12-16T01:07:49.254Z,17.23
2018-12-16T01:10:18.589Z,17.30
2018-12-16T01:12:47.866Z,18.75
2018-12-16T01:15:17.151Z,16.20
2018-12-16T01:17:46.412Z,17.02
2018-12-16T01:20:15.854Z,18.12
2018-12-16T01:22:45.190Z,17.65
2018-12-16T01:25:14.460Z,17.40
2018-12-16T01:27:43.654Z,17.35
2018-12-16T01:30:12.913Z,18.80
2018-12-16T01:32:42.271Z,21.95
2018-12-16T01:35:12.067Z,18.73
2018-12-16T01:37:41.383Z,17.77
2018-12-16T01:40:10.883Z,16.67
2018-12-16T01:42:40.163Z,20.65
2018-12-16T01:45:09.600Z,20.27
2018-12-16T01:47:38.790Z,16.45
2018-12-16T01:50:08.239Z,17.92
2018-12-16T01:52:37.522Z,17.82
2018-12-16T01:55:09.172Z,17.92
2018-12-16T01:57:38.472Z,14.10
2018-12-16T02:00:10.495Z,15.03
2018-12-16T02:02:39.810Z,15.03
2018-12-16T02:05:09.302Z,14.10
2018-12-16T02:07:38.643Z,16.67
2018-12-16T02:10:08.002Z,14.85
2018-12-16T02:12:37.307Z,14.83
2018-12-16T02:15:06.902Z,17.82
2018-12-16T02:17:36.114Z,10.78
2018-12-16T02:20:06.222Z,15.45
2018-12-16T02:22:35.427Z,17.67
2018-12-16T02:25:08.015Z,16.05
2018-12-16T02:29:18.715Z,14.90
2018-12-16T02:31:47.917Z,16.70
2018-12-16T02:34:17.129Z,14.80
2018-12-16T02:36:46.954Z,13.85
2018-12-16T02:39:16.268Z,11.08
2018-12-16T02:41:46.618Z,10.32
2018-12-16T02:44:15.906Z,12.43
2018-12-16T02:46:45.683Z,13.62
2018-12-16T02:49:14.923Z,14.33
2018-12-16T02:51:44.231Z,12.30
2018-12-16T02:54:13.418Z,13.22
2018-12-16T02:56:42.630Z,15.35
2018-12-16T02:59:11.912Z,13.68
2018-12-16T03:01:45.259Z,11.50
2018-12-16T03:04:14.491Z,10.05
2018-12-16T03:06:43.841Z,12.43
2018-12-16T03:09:13.203Z,10.87
2018-12-16T03:11:42.435Z,10.20
2018-12-16T03:14:11.797Z,8.90
2018-12-16T03:16:41.024Z,10.43
2018-12-16T03:19:14.212Z,11.50
2018-12-16T03:21:43.515Z,11.33
2018-12-16T03:24:12.787Z,10.82
2018-12-16T03:26:42.008Z,10.80
2018-12-16T03:29:11.186Z,10.18
2018-12-16T03:31:40.404Z,10.25
2018-12-16T03:34:09.666Z,11.63
2018-12-16T03:36:38.858Z,9.50
2018-12-16T03:39:08.683Z,12.25
2018-12-16T03:41:38.127Z,10.23
2018-12-16T03:44:07.490Z,11.97
2018-12-16T03:46:36.893Z,9.95
2018-12-16T03:49:06.086Z,9.43
2018-12-16T03:51:35.660Z,12.05
2018-12-16T03:54:04.903Z,10.15
2018-12-16T03:56:34.201Z,9.05
2018-12-16T03:59:17.718Z,10.23
2018-12-16T04:01:52.730Z,10.83
2018-12-16T04:04:22.058Z,10.05
2018-12-16T04:06:51.475Z,9.50
2018-12-16T04:09:20.859Z,11.12
2018-12-16T04:11:50.306Z,11.80
2018-12-16T04:14:19.671Z,9.93
2018-12-16T04:16:48.895Z,9.90
2018-12-16T04:19:18.189Z,9.15
2018-12-16T04:21:48.545Z,12.30
2018-12-16T04:24:17.750Z,10.40
2018-12-16T04:26:46.986Z,11.70
2018-12-16T04:29:16.206Z,6.55
2018-12-16T04:31:45.398Z,8.53
2018-12-16T04:34:14.678Z,10.13
2018-12-16T04:36:43.975Z,10.60
2018-12-16T04:39:14.254Z,11.12
2018-12-16T04:41:43.446Z,10.53
2018-12-16T04:44:12.720Z,10.98
2018-12-16T04:46:43.135Z,10.75
2018-12-16T04:49:12.553Z,10.13
2018-12-16T04:51:41.970Z,10.10
2018-12-16T04:54:11.181Z,9.00
2018-12-16T04:56:40.424Z,12.63
2018-12-16T04:59:09.679Z,10.90
2018-12-16T05:01:39.031Z,10.58
2018-12-16T05:04:08.275Z,10.75
2018-12-16T05:06:37.637Z,13.55
2018-12-16T05:09:08.698Z,10.58
2018-12-16T05:11:37.995Z,10.93
2018-12-16T05:14:07.459Z,10.60
2018-12-16T05:16:36.707Z,11.35
2018-12-16T05:19:06.141Z,10.90
2018-12-16T05:21:38.004Z,12.37
2018-12-16T05:24:08.570Z,10.65
2018-12-16T05:26:37.740Z,10.23
2018-12-16T05:29:06.935Z,12.70
2018-12-16T05:31:36.118Z,10.43
2018-12-16T05:34:05.514Z,12.45
2018-12-16T05:36:34.750Z,12.35
2018-12-16T05:39:04.998Z,11.90
2018-12-16T05:41:34.286Z,12.50
2018-12-16T05:44:03.559Z,12.93
2018-12-16T05:46:32.731Z,12.65
2018-12-16T05:49:01.926Z,14.03
2018-12-16T05:51:31.155Z,11.85
2018-12-16T05:54:00.378Z,14.00
2018-12-16T05:56:29.575Z,13.05
2018-12-16T05:58:58.784Z,12.45
2018-12-16T06:01:27.957Z,14.45
2018-12-16T06:03:57.163Z,12.25
2018-12-16T06:06:26.346Z,13.70
2018-12-16T06:08:55.557Z,13.53
2018-12-16T06:11:24.743Z,15.00
2018-12-16T06:13:53.991Z,16.30
2018-12-16T06:16:23.190Z,12.80
2018-12-16T06:18:52.566Z,11.40
2018-12-16T06:21:21.731Z,13.62
2018-12-16T06:23:55.569Z,15.70
2018-12-16T06:26:22.237Z,19.35
2018-12-16T06:28:51.483Z,14.53
2018-12-16T06:31:20.658Z,14.00
2018-12-16T06:33:49.838Z,15.72
2018-12-16T06:36:19.050Z,16.97
2018-12-16T06:38:48.273Z,16.45
2018-12-16T06:41:17.456Z,17.23
2018-12-16T06:43:46.652Z,15.50
2018-12-16T06:46:15.850Z,14.25
2018-12-16T06:48:45.059Z,16.80
2018-12-16T06:51:14.393Z,17.77
2018-12-16T06:53:43.578Z,15.80
2018-12-16T06:56:12.831Z,11.80
2018-12-16T06:58:42.050Z,12.43
2018-12-16T07:01:11.233Z,14.78
2018-12-16T07:03:40.419Z,15.32
2018-12-16T07:06:09.635Z,16.75
2018-12-16T07:08:39.870Z,18.02
2018-12-16T07:11:09.146Z,17.27
2018-12-16T07:13:38.395Z,18.25
2018-12-16T07:16:07.657Z,18.27
2018-12-16T07:18:36.892Z,7.75
2018-12-16T07:21:06.253Z,12.05
2018-12-16T07:23:35.457Z,17.07
2018-12-16T07:26:04.731Z,18.90
2018-12-16T07:28:34.057Z,19.77
2018-12-16T07:31:03.250Z,18.10
2018-12-16T07:33:32.502Z,10.60
2018-12-16T07:36:01.994Z,17.20
2018-12-16T07:38:31.188Z,18.42
2018-12-16T07:41:00.678Z,19.85
2018-12-16T07:43:29.865Z,19.32
2018-12-16T07:45:59.179Z,17.80
2018-12-16T07:48:28.779Z,19.23
2018-12-16T07:50:58.155Z,17.30
2018-12-16T07:53:27.384Z,16.35
2018-12-16T07:55:56.610Z,16.00
2018-12-16T07:58:25.883Z,17.73
2018-12-16T08:00:55.182Z,20.52
2018-12-16T08:03:24.476Z,17.82
2018-12-16T08:05:53.649Z,17.42
2018-12-16T08:08:22.854Z,17.62
2018-12-16T08:10:52.154Z,20.40
2018-12-16T08:13:21.453Z,19.37
2018-12-16T08:15:50.633Z,17.48
2018-12-16T08:18:19.838Z,17.25
2018-12-16T08:20:49.006Z,15.98
2018-12-16T08:23:18.264Z,17.30
2018-12-16T08:25:47.629Z,8.10
2018-12-16T08:28:16.832Z,19.32
2018-12-16T08:30:46.150Z,13.30
2018-12-16T08:33:15.557Z,17.17
2018-12-16T08:35:44.751Z,17.00
2018-12-16T08:38:13.953Z,19.70
2018-12-16T08:40:43.234Z,19.92
2018-12-16T08:43:12.512Z,16.32
2018-12-16T08:45:41.731Z,17.87
2018-12-16T08:48:10.929Z,10.65
2018-12-16T08:50:40.111Z,18.95
2018-12-16T08:53:09.442Z,15.85
2018-12-16T08:55:38.654Z,20.50
2018-12-16T08:58:07.850Z,17.17
2018-12-16T09:00:37.039Z,18.98
2018-12-16T09:03:08.231Z,11.08
2018-12-16T09:05:38.171Z,18.73
2018-12-16T09:08:07.399Z,21.12
2018-12-16T09:10:36.822Z,14.83
2018-12-16T09:13:06.067Z,17.12
2018-12-16T09:15:35.263Z,16.37
2018-12-16T09:18:04.590Z,14.63
2018-12-16T09:20:33.792Z,12.15
2018-12-16T09:23:03.090Z,22.60
2018-12-16T09:25:32.952Z,20.17
2018-12-16T09:28:02.174Z,19.35
2018-12-16T09:30:31.403Z,8.35
2018-12-16T09:33:00.568Z,16.50
2018-12-16T09:35:29.794Z,8.68
2018-12-16T09:37:58.959Z,13.03
2018-12-16T09:40:28.158Z,18.52
2018-12-16T09:42:57.438Z,22.62
2018-12-16T09:45:26.680Z,19.15
2018-12-16T09:47:56.107Z,16.17
2018-12-16T09:50:25.388Z,19.07
2018-12-16T09:52:54.684Z,20.05
2018-12-16T09:55:23.974Z,22.35
2018-12-16T09:57:53.171Z,23.32
2018-12-16T10:00:22.467Z,20.27
2018-12-16T10:02:51.638Z,14.85
2018-12-16T10:05:20.831Z,15.35
2018-12-16T10:07:50.077Z,18.55
2018-12-16T10:10:19.286Z,22.45
2018-12-16T10:12:48.478Z,10.63
2018-12-16T10:15:17.735Z,20.00
2018-12-16T10:17:46.930Z,21.37
2018-12-16T10:20:16.788Z,17.32
2018-12-16T10:22:46.038Z,13.48
2018-12-16T10:25:15.265Z,20.60
2018-12-16T10:27:44.438Z,13.10
2018-12-16T10:30:13.653Z,19.55
2018-12-16T10:32:42.927Z,17.62
2018-12-16T10:35:12.157Z,12.37
2018-12-16T10:37:41.355Z,20.23
2018-12-16T10:40:11.402Z,20.63
2018-12-16T10:42:40.596Z,4.58
2018-12-16T10:45:10.102Z,19.62
2018-12-16T10:47:39.356Z,20.17
2018-12-16T10:50:09.497Z,19.65
2018-12-16T10:52:38.739Z,22.40
2018-12-16T10:55:08.117Z,19.75
2018-12-16T10:57:37.366Z,21.97
2018-12-16T11:00:12.463Z,20.25
2018-12-16T11:02:41.821Z,17.73
2018-12-16T11:05:11.114Z,18.80
2018-12-16T11:07:40.355Z,15.65
2018-12-16T11:10:09.743Z,16.85
2018-12-16T11:12:39.467Z,15.40
2018-12-16T11:15:08.742Z,20.90
2018-12-16T11:17:37.946Z,16.37
2018-12-16T11:20:07.679Z,15.58
2018-12-16T11:22:36.957Z,19.50
2018-12-16T11:25:09.842Z,17.42
2018-12-16T11:27:39.039Z,16.65
2018-12-16T11:30:08.953Z,11.57
2018-12-16T11:32:38.118Z,9.90
2018-12-16T11:35:07.665Z,8.50
2018-12-16T11:37:36.926Z,16.73
2018-12-16T11:40:07.058Z,21.07
2018-12-16T11:42:36.271Z,19.27
2018-12-16T11:45:06.878Z,18.52
2018-12-16T11:47:36.095Z,14.28
2018-12-16T11:50:05.737Z,19.98
2018-12-16T11:52:34.975Z,17.42
2018-12-16T11:55:04.367Z,17.85
2018-12-16T11:57:33.625Z,8.93
2018-12-16T12:00:02.836Z,18.82
2018-12-16T12:02:32.879Z,20.30
2018-12-16T12:05:02.371Z,19.40
2018-12-16T12:07:31.578Z,16.77
2018-12-16T12:10:00.857Z,22.50
2018-12-16T12:12:30.187Z,18.50
2018-12-16T12:14:59.488Z,18.20
2018-12-16T12:17:28.720Z,13.30
2018-12-16T12:19:57.887Z,16.05
2018-12-16T12:22:27.172Z,17.80
2018-12-16T12:24:56.482Z,18.42
2018-12-16T12:27:25.688Z,19.05
2018-12-16T12:29:54.878Z,18.67
2018-12-16T12:32:24.074Z,9.73
2018-12-16T12:34:53.258Z,15.85
2018-12-16T12:37:22.570Z,12.33
2018-12-16T12:39:51.893Z,18.62
2018-12-16T12:42:21.190Z,16.35
2018-12-16T12:44:50.386Z,16.77
2018-12-16T12:47:19.674Z,17.17
2018-12-16T12:49:49.409Z,12.15
2018-12-16T12:52:18.607Z,16.55
2018-12-16T12:54:47.857Z,21.77
2018-12-16T12:57:17.082Z,16.35
2018-12-16T12:59:46.290Z,20.70
2018-12-16T13:02:15.774Z,19.17
2018-12-16T13:04:44.989Z,21.45
2018-12-16T13:07:14.274Z,22.27
2018-12-16T13:09:44.181Z,18.48
2018-12-16T13:12:13.527Z,19.05
2018-12-16T13:14:42.776Z,17.50
2018-12-16T13:17:11.987Z,18.60
2018-12-16T13:19:41.199Z,20.00
2018-12-16T13:22:10.486Z,19.73
2018-12-16T13:25:55.033Z,18.67
2018-12-16T13:28:24.221Z,18.42
2018-12-16T13:30:53.478Z,8.93
2018-12-16T13:33:22.683Z,19.75
2018-12-16T13:35:51.925Z,19.17
2018-12-16T13:38:21.158Z,17.73
2018-12-16T13:40:50.566Z,18.05
2018-12-16T13:43:19.758Z,20.45
2018-12-16T13:45:49.138Z,20.23
2018-12-16T13:48:18.461Z,21.52
2018-12-16T13:50:47.886Z,17.48
2018-12-16T13:53:17.151Z,21.73
2018-12-16T13:55:46.622Z,20.52
2018-12-16T13:58:15.870Z,17.82
2018-12-16T14:00:45.155Z,16.50
2018-12-16T14:03:14.382Z,22.05
2018-12-16T14:05:46.837Z,20.70
2018-12-16T14:08:15.046Z,21.97
2018-12-16T14:10:45.585Z,21.07
2018-12-16T14:13:14.939Z,18.65
2018-12-16T14:15:44.347Z,23.62
2018-12-16T14:18:14.449Z,16.15
2018-12-16T14:20:43.920Z,23.38
2018-12-16T14:23:14.273Z,21.10
2018-12-16T14:25:48.005Z,22.30
2018-12-16T14:28:14.798Z,22.15
2018-12-16T14:30:44.110Z,18.40
2018-12-16T14:33:13.307Z,20.10
2018-12-16T14:35:42.615Z,13.90
2018-12-16T14:38:12.128Z,23.60
2018-12-16T14:40:41.399Z,14.33
2018-12-16T14:43:10.609Z,14.80
2018-12-16T14:45:39.824Z,21.75
2018-12-16T14:48:09.112Z,20.80
2018-12-16T14:50:38.614Z,20.95
2018-12-16T14:53:07.810Z,18.23
2018-12-16T14:55:37.034Z,24.50
2018-12-16T14:58:06.528Z,23.27
2018-12-16T15:00:35.726Z,23.92
2018-12-16T15:03:05.407Z,25.02
2018-12-16T15:05:34.670Z,23.85
2018-12-16T15:08:04.033Z,23.87
2018-12-16T15:10:33.219Z,12.50
2018-12-16T15:13:02.419Z,25.17
2018-12-16T15:15:31.706Z,25.55
2018-12-16T15:18:00.914Z,23.40
2018-12-16T15:20:30.099Z,28.27
2018-12-16T15:22:59.509Z,21.48
2018-12-16T15:25:28.702Z,20.12
2018-12-16T15:27:57.901Z,25.27
2018-12-16T15:30:27.070Z,25.27
2018-12-16T15:32:56.326Z,23.80
2018-12-16T15:35:25.686Z,18.60
2018-12-16T15:37:55.011Z,27.22
2018-12-16T15:40:24.206Z,27.32
2018-12-16T15:42:53.423Z,21.90
2018-12-16T15:45:22.670Z,17.90
2018-12-16T15:47:51.898Z,21.30
2018-12-16T15:50:21.173Z,22.45
2018-12-16T15:52:50.410Z,24.00
2018-12-16T15:55:19.599Z,21.05
2018-12-16T15:57:48.795Z,23.67
2018-12-16T16:00:17.970Z,25.20
2018-12-16T16:02:47.190Z,21.57
2018-12-16T16:05:16.465Z,13.88
2018-12-16T16:07:45.714Z,19.95
2018-12-16T16:10:15.067Z,21.95
2018-12-16T16:12:44.331Z,19.07
2018-12-16T16:15:13.662Z,22.93
2018-12-16T16:17:42.886Z,17.20
2018-12-16T16:20:12.263Z,20.35
2018-12-16T16:22:41.463Z,16.80
2018-12-16T16:25:10.658Z,18.40
2018-12-16T16:27:39.929Z,19.07
2018-12-16T16:30:09.859Z,19.02
2018-12-16T16:32:39.355Z,16.57
2018-12-16T16:35:08.743Z,16.82
2018-12-16T16:37:38.523Z,16.15
2018-12-16T16:40:08.430Z,18.10
2018-12-16T16:42:37.710Z,18.90
2018-12-16T16:45:07.418Z,18.13
2018-12-16T16:47:36.644Z,18.07
2018-12-16T16:50:06.590Z,14.10
2018-12-16T16:52:35.839Z,20.62
2018-12-16T16:55:05.632Z,20.25
2018-12-16T16:57:34.814Z,17.60
2018-12-16T17:00:04.687Z,19.02
2018-12-16T17:02:33.943Z,19.12
2018-12-16T17:05:03.267Z,24.18
2018-12-16T17:07:32.538Z,17.27
2018-12-16T17:10:01.839Z,19.17
2018-12-16T17:12:31.034Z,19.48
2018-12-16T17:15:00.237Z,20.75
2018-12-16T17:17:29.430Z,21.10
2018-12-16T17:19:58.687Z,21.27
2018-12-16T17:22:27.909Z,18.25
2018-12-16T17:24:57.144Z,17.98
2018-12-16T17:27:26.326Z,19.17
2018-12-16T17:29:55.637Z,23.98
2018-12-16T17:32:24.855Z,16.82
2018-12-16T17:34:54.083Z,22.15
2018-12-16T17:37:23.346Z,15.13
2018-12-16T17:39:52.623Z,9.35
2018-12-16T17:42:21.808Z,23.65
2018-12-16T17:44:51.018Z,25.25
2018-12-16T17:47:20.207Z,24.52
2018-12-16T17:49:49.435Z,21.95
2018-12-16T17:52:18.818Z,20.00
2018-12-16T17:54:48.034Z,20.40
2018-12-16T17:57:17.274Z,23.45
2018-12-16T17:59:46.634Z,22.07
2018-12-16T18:02:15.878Z,26.02
2018-12-16T18:04:45.103Z,21.37
2018-12-16T18:07:14.298Z,22.87
2018-12-16T18:09:43.531Z,26.55
2018-12-16T18:12:12.798Z,24.07
2018-12-16T18:14:42.147Z,24.98
2018-12-16T18:17:11.349Z,23.77
2018-12-16T18:19:40.559Z,23.35
2018-12-16T18:22:14.038Z,25.55
2018-12-16T18:24:41.244Z,17.12
2018-12-16T18:27:10.452Z,27.87
2018-12-16T18:29:46.422Z,23.32
2018-12-16T18:32:15.617Z,23.07
2018-12-16T18:34:44.934Z,26.40
2018-12-16T18:37:14.239Z,27.90
2018-12-16T18:39:43.438Z,24.80
2018-12-16T18:42:12.798Z,26.97
2018-12-16T18:44:42.176Z,26.50
2018-12-16T18:47:11.350Z,22.30
2018-12-16T18:49:40.659Z,21.02
2018-12-16T18:52:09.930Z,26.37
2018-12-16T18:54:39.259Z,16.40
2018-12-16T18:57:08.450Z,27.40
2018-12-16T18:59:37.761Z,24.90
2018-12-16T19:02:07.036Z,27.77
2018-12-16T19:04:36.694Z,25.70
2018-12-16T19:07:06.100Z,24.27
2018-12-16T19:09:35.358Z,27.20
2018-12-16T19:12:04.863Z,23.30
2018-12-16T19:14:34.886Z,24.43
2018-12-16T19:17:04.186Z,29.45
2018-12-16T19:19:33.491Z,29.48
2018-12-16T19:22:03.054Z,23.47
2018-12-16T19:24:32.257Z,25.80
2018-12-16T19:27:01.862Z,26.48
2018-12-16T19:29:31.057Z,26.02
2018-12-16T19:32:00.330Z,25.20
2018-12-16T19:34:29.650Z,27.90
2018-12-16T19:36:58.842Z,26.62
2018-12-16T19:39:28.105Z,25.02
2018-12-16T19:41:57.449Z,28.57
2018-12-16T19:44:26.902Z,24.05
2018-12-16T19:46:56.346Z,25.88
2018-12-16T19:49:25.615Z,29.65
2018-12-16T19:51:55.183Z,29.87
2018-12-16T19:54:24.511Z,27.70
2018-12-16T19:56:53.696Z,28.00
2018-12-16T19:59:22.978Z,28.50
2018-12-16T20:01:52.266Z,28.83
2018-12-16T20:04:22.059Z,27.20
2018-12-16T20:06:51.315Z,27.85
2018-12-16T20:09:20.511Z,24.82
2018-12-16T20:11:49.688Z,30.10
2018-12-16T20:14:18.923Z,26.42
2018-12-16T20:16:48.135Z,26.33
2018-12-16T20:19:17.326Z,25.50
2018-12-16T20:21:46.555Z,26.73
2018-12-16T20:24:16.141Z,26.30
2018-12-16T20:26:45.443Z,28.30
2018-12-16T20:29:14.718Z,27.35
2018-12-16T20:31:43.978Z,25.50
2018-12-16T20:34:13.179Z,27.95
2018-12-16T20:36:42.387Z,26.77
2018-12-16T20:39:11.555Z,26.97
2018-12-16T20:41:40.882Z,28.52
2018-12-16T20:44:10.048Z,24.20
2018-12-16T20:46:39.230Z,27.32
2018-12-16T20:49:08.613Z,26.82
2018-12-16T20:51:37.821Z,25.25
2018-12-16T20:54:07.068Z,26.30
2018-12-16T20:56:36.284Z,27.32
2018-12-16T20:59:05.570Z,30.77
2018-12-16T21:01:34.784Z,27.58
2018-12-16T21:04:04.166Z,27.55
2018-12-16T21:06:34.267Z,26.23
2018-12-16T21:09:04.737Z,25.20
2018-12-16T21:11:41.424Z,27.05
2018-12-16T21:14:16.279Z,24.63
2018-12-16T21:16:50.941Z,26.30
2018-12-16T21:19:20.861Z,25.50
2018-12-16T21:21:50.159Z,27.73
2018-12-16T21:24:19.629Z,27.17
2018-12-16T21:26:49.162Z,25.80
2018-12-16T21:29:18.349Z,28.92
2018-12-16T21:31:47.554Z,27.27
2018-12-16T21:34:16.730Z,27.80
2018-12-16T21:36:45.933Z,26.70
2018-12-16T21:39:15.330Z,25.10
2018-12-16T21:41:44.538Z,27.90
2018-12-16T21:44:13.727Z,26.73
2018-12-16T21:46:42.911Z,27.85
2018-12-16T21:49:12.078Z,27.37
2018-12-16T21:51:41.275Z,27.77
2018-12-16T21:54:10.448Z,24.20
2018-12-16T21:56:39.643Z,26.17
2018-12-16T21:59:08.827Z,24.55
2018-12-16T22:01:40.818Z,24.18
2018-12-16T22:04:09.998Z,26.50
2018-12-16T22:06:39.338Z,23.40
2018-12-16T22:09:09.398Z,24.23
2018-12-16T22:11:38.598Z,23.95
2018-12-16T22:14:07.907Z,25.88
2018-12-16T22:16:37.106Z,23.45
2018-12-16T22:19:06.956Z,22.98
2018-12-16T22:21:36.141Z,24.67
2018-12-16T22:24:06.218Z,21.85
2018-12-16T22:26:35.430Z,23.42
2018-12-16T22:29:05.030Z,22.77
2018-12-16T22:31:34.235Z,24.67
2018-12-16T22:34:03.396Z,30.95
2018-12-16T22:36:32.651Z,26.57
2018-12-16T22:39:01.814Z,29.60
2018-12-16T22:41:30.998Z,24.70
2018-12-16T22:44:00.171Z,26.02
2018-12-16T22:46:29.728Z,25.77
2018-12-16T22:48:58.918Z,26.07
2018-12-16T22:51:28.239Z,28.73
2018-12-16T22:53:57.397Z,29.45
2018-12-16T22:56:26.619Z,25.37
2018-12-16T22:58:55.784Z,27.55
2018-12-16T23:01:25.216Z,24.32
2018-12-16T23:03:55.939Z,28.17
2018-12-16T23:06:25.295Z,25.68
2018-12-16T23:08:54.538Z,27.15
2018-12-16T23:11:23.727Z,28.57
2018-12-16T23:13:52.903Z,22.73
2018-12-16T23:16:22.355Z,23.42
2018-12-16T23:18:51.618Z,25.80
2018-12-16T23:21:21.026Z,26.02
2018-12-16T23:23:50.221Z,25.52
2018-12-16T23:33:18.674Z,24.05
2018-12-16T23:35:48.147Z,22.65
2018-12-16T23:38:17.430Z,24.82
2018-12-16T23:40:46.832Z,25.27
2018-12-16T23:43:16.086Z,23.57
2018-12-16T23:45:49.310Z,23.87
2018-12-16T23:48:18.722Z,25.43
2018-12-16T23:50:48.012Z,23.60
2018-12-16T23:53:17.332Z,23.90
2018-12-16T23:55:46.679Z,22.58
2018-12-16T23:58:15.975Z,23.70
